Time,TemperatureF,DewpointF,PressureIn,WindDirection,WindDirectionDegrees,WindSpeedMPH,WindSpeedGustMPH,Humidity,HourlyPrecipIn,Conditions,Clouds,dailyrainin,SolarRadiationWatts/m^2,SoftwareType,DateUTC
2013-03-24 00:29:00,32.1,22.0,29.75,SW,236,1.0,8.0,66,0.00,CLR,,0.12,0.0,WeatherDisplay:10.37,2013-03-24 04:29:00,
2013-03-24 01:00:00,31.5,22.1,29.75,WSW,243,0.0,6.0,68,0.00,CLR,,0.12,0.0,WeatherDisplay:10.37,2013-03-24 05:00:00,
2013-03-24 01:29:00,31.5,22.5,29.75,West,268,1.0,7.0,69,0.00,CLR,,0.12,0.0,WeatherDisplay:10.37,2013-03-24 05:29:00,
2013-03-24 02:00:00,31.5,22.8,29.76,WSW,240,1.0,6.0,70,0.00,RA,,0.00,0.0,WeatherDisplay:10.37,2013-03-24 06:00:00,
2013-03-24 02:29:00,31.6,22.9,29.76,WSW,257,0.0,7.0,70,0.00,CLR,,0.00,0.0,WeatherDisplay:10.37,2013-03-24 06:29:00,
2013-03-24 03:00:00,31.3,22.6,29.76,West,276,0.0,7.0,70,0.00,CLR,,0.00,0.0,WeatherDisplay:10.37,2013-03-24 07:00:00,
2013-03-24 03:29:00,30.3,22.4,29.75,SW,233,0.0,8.0,72,0.00,CLR,,0.00,0.0,WeatherDisplay:10.37,2013-03-24 07:29:00,
2013-03-24 04:00:00,30.3,22.7,29.75,West,275,0.0,4.0,73,0.00,CLR,,0.00,0.0,WeatherDisplay:10.37,2013-03-24 08:00:00,
2013-03-24 04:29:00,29.5,22.6,29.75,North,356,0.0,5.0,75,0.00,CLR,,0.00,0.0,WeatherDisplay:10.37,2013-03-24 08:29:00,
2013-03-24 05:00:00,28.7,22.4,29.75,North,9,0.0,3.0,77,0.00,CLR,,0.00,0.0,WeatherDisplay:10.37,2013-03-24 09:00:00,
2013-03-24 05:29:00,28.0,22.6,29.76,North,355,0.0,2.0,80,0.00,CLR,,0.00,0.0,WeatherDisplay:10.37,2013-03-24 09:29:00,
2013-03-24 06:00:00,27.8,22.7,29.76,NNW,340,0.0,3.0,81,0.00,CLR,,0.00,0.0,WeatherDisplay:10.37,2013-03-24 10:00:00,
2013-03-24 06:29:00,27.0,22.2,29.77,NNW,333,0.0,1.0,82,0.00,OVC,,0.00,0.0,WeatherDisplay:10.37,2013-03-24 10:29:00,
2013-03-24 07:00:00,27.4,22.4,29.80,NNW,333,0.0,1.0,81,0.00,BKN,,0.00,14.0,WeatherDisplay:10.37,2013-03-24 11:00:00,
2013-03-24 07:29:00,28.1,23.6,29.80,NNW,331,0.0,3.0,83,0.00,FEW,,0.00,93.0,WeatherDisplay:10.37,2013-03-24 11:29:00,
2013-03-24 08:00:00,32.7,25.6,29.80,West,274,2.0,7.0,75,0.00,CLR,,0.00,200.0,WeatherDisplay:10.37,2013-03-24 12:00:00,
2013-03-24 08:29:00,34.7,25.2,29.80,West,277,6.0,9.0,68,0.00,CLR,,0.00,292.0,WeatherDisplay:10.37,2013-03-24 12:29:00,
2013-03-24 09:00:00,36.1,26.2,29.80,West,277,3.0,12.0,67,0.00,CLR,,0.00,381.0,WeatherDisplay:10.37,2013-03-24 13:00:00,
2013-03-24 09:29:00,37.9,27.2,29.79,NW,315,1.0,16.0,65,0.00,CLR,,0.00,466.0,WeatherDisplay:10.37,2013-03-24 13:29:00,
2013-03-24 10:00:00,38.3,26.4,29.80,NW,310,7.0,16.0,62,0.00,CLR,,0.00,547.0,WeatherDisplay:10.37,2013-03-24 14:00:00,
2013-03-24 10:29:00,39.1,26.8,29.79,WNW,295,5.0,16.0,61,0.00,CLR,,0.00,619.0,WeatherDisplay:10.37,2013-03-24 14:29:00,
2013-03-24 11:00:00,39.6,26.4,29.80,West,281,2.0,13.0,59,0.00,CLR,,0.00,735.0,WeatherDisplay:10.37,2013-03-24 15:00:00,
2013-03-24 11:29:00,40.9,26.8,29.79,WNW,297,6.0,12.0,57,0.00,CLR,,0.00,775.0,WeatherDisplay:10.37,2013-03-24 15:29:00,
2013-03-24 12:00:00,41.3,27.6,29.80,West,281,6.0,12.0,58,0.00,FEW,,0.00,979.0,WeatherDisplay:10.37,2013-03-24 16:00:00,
2013-03-24 12:29:00,42.4,26.9,29.80,NW,304,5.0,12.0,54,0.00,CLR,,0.00,394.0,WeatherDisplay:10.37,2013-03-24 16:29:00,
2013-03-24 13:00:00,43.0,26.6,29.79,WNW,297,3.0,14.0,52,0.00,FEW,,0.00,431.0,WeatherDisplay:10.37,2013-03-24 17:00:00,
2013-03-24 13:29:00,44.1,27.6,29.77,WNW,303,7.0,12.0,52,0.00,CLR,,0.00,1067.0,WeatherDisplay:10.37,2013-03-24 17:29:00,
2013-03-24 14:00:00,44.5,27.5,29.77,WSW,253,2.0,13.0,51,0.00,CLR,,0.00,1143.0,WeatherDisplay:10.37,2013-03-24 18:00:00,
2013-03-24 14:29:00,44.0,26.5,29.77,WNW,294,2.0,10.0,50,0.00,SCT,,0.00,814.0,WeatherDisplay:10.37,2013-03-24 18:29:00,
2013-03-24 15:00:00,46.7,28.0,29.75,WNW,301,6.0,13.0,48,0.00,CLR,,0.00,803.0,WeatherDisplay:10.37,2013-03-24 19:00:00,
2013-03-24 15:29:00,44.6,26.6,29.74,WNW,294,1.0,12.0,49,0.00,CLR,,0.00,640.0,WeatherDisplay:10.37,2013-03-24 19:29:00,
2013-03-24 16:00:00,45.6,27.6,29.74,North,353,1.0,12.0,49,0.00,CLR,,0.00,568.0,WeatherDisplay:10.37,2013-03-24 20:00:00,
2013-03-24 16:29:00,45.4,27.3,29.73,NW,316,2.0,12.0,49,0.00,CLR,,0.00,480.0,WeatherDisplay:10.37,2013-03-24 20:29:00,
2013-03-24 16:59:00,45.6,27.0,29.72,WNW,295,5.0,12.0,48,0.00,FEW,,0.00,91.0,WeatherDisplay:10.37,2013-03-24 20:59:00,
2013-03-24 17:29:00,43.7,26.3,29.73,WNW,296,3.0,8.0,50,0.00,SCT,,0.00,146.0,WeatherDisplay:10.37,2013-03-24 21:29:00,
2013-03-24 18:00:00,43.1,26.2,29.74,NNW,339,2.0,8.0,51,0.00,BKN,,0.00,67.0,WeatherDisplay:10.37,2013-03-24 22:00:00,
2013-03-24 18:29:00,42.6,28.0,29.75,WNW,285,1.0,5.0,56,0.00,BKN,,0.00,30.0,WeatherDisplay:10.37,2013-03-24 22:29:00,
2013-03-24 18:59:00,39.7,28.9,29.75,East,96,0.0,5.0,65,0.00,OVC,,0.00,0.0,WeatherDisplay:10.37,2013-03-24 22:59:00,
2013-03-24 19:29:00,37.2,29.4,29.75,East,96,0.0,1.0,73,0.00,OVC,,0.00,0.0,WeatherDisplay:10.37,2013-03-24 23:29:00,
2013-03-24 19:59:00,35.2,28.1,29.76,East,96,0.0,1.0,75,0.00,CLR,,0.00,0.0,WeatherDisplay:10.37,2013-03-24 23:59:00,
2013-03-24 20:29:00,33.4,27.9,29.77,East,96,0.0,1.0,80,0.00,CLR,,0.00,0.0,WeatherDisplay:10.37,2013-03-25 00:29:00,
2013-03-24 21:00:00,32.6,27.7,29.77,East,96,0.0,1.0,82,0.00,CLR,,0.00,0.0,WeatherDisplay:10.37,2013-03-25 01:00:00,
2013-03-24 21:29:00,32.1,28.4,29.78,East,96,0.0,1.0,86,0.00,CLR,,0.00,0.0,WeatherDisplay:10.37,2013-03-25 01:29:00,
2013-03-24 21:59:00,32.2,28.8,29.79,East,96,0.0,1.0,87,0.00,CLR,,0.00,0.0,WeatherDisplay:10.37,2013-03-25 01:59:00,
2013-03-24 22:29:00,32.4,28.9,29.79,East,96,0.0,0.0,87,0.00,CLR,,0.00,0.0,WeatherDisplay:10.37,2013-03-25 02:29:00,
2013-03-24 22:59:00,32.1,28.7,29.78,East,96,0.0,0.0,87,0.00,CLR,,0.00,0.0,WeatherDisplay:10.37,2013-03-25 02:59:00,
2013-03-24 23:29:00,31.7,28.3,29.78,East,95,0.0,0.0,87,0.00,CLR,,0.00,0.0,WeatherDisplay:10.37,2013-03-25 03:29:00,